Delray Beach, FL

4:16 PM EDT on September 19, 2014 (GMT -0400)
Palm Beach International | Change Station
CLOSE
Current Station
Airport
Location: West Palm Beach,
Elevation: 20 ft
Nearby Weather Stations

Elev 20 ft 26.68 °N, 80.10 °W | Updated 23 minutes ago

Rain
Rain
75 °F
Feels Like 75 °F
N
7
Wind Variable Wind from WNW

Today
High -- | Low -- °F
--% Chance of Precip.
Yesterday
High -- | Low -- °F
Precip. -- in
7:07 AM 7:20 PM
Waning Crescent, 17% visible
Pressure 29.91 in
Visibility 5.0 miles
Clouds Few 1600 ft
Mostly Cloudy 3100 ft
Overcast 11000 ft
Dew Point 73 °F
Humidity 94%
Rainfall 0.45 in
Snow Depth Not available.
UV 2 out of 12
Pollen 2.40 out of 12
Ozone Good
PM2.5 Good
Flu Activity Not available.
METAR KPBI 191953Z 30006KT 5SM TSRA BR FEW016 BKN031CB OVC110 24/23 A2991 RMK AO2 SLP128 OCNL LTGICCCCG OHD-NE-E TS OHD-NE-E MOV NE P0023 T02390228

More Conditions Fewer Conditions

Pressure 29.91 in
Visibility 5.0 miles
Clouds Few 1600 ft
Mostly Cloudy 3100 ft
Overcast 11000 ft
Dew Point 73 °F
Humidity 94%
Rainfall 0.45 in
Snow Depth Not available.
UV 2 out of 12
Pollen 2.40 out of 12
Ozone Good
PM2.5 Good
Flu Activity Not available.
METAR KPBI 191953Z 30006KT 5SM TSRA BR FEW016 BKN031CB OVC110 24/23 A2991 RMK AO2 SLP128 OCNL LTGICCCCG OHD-NE-E TS OHD-NE-E MOV NE P0023 T02390228

More Conditions Fewer Conditions

10-Day Weather Forecast

Almanac

Astronomy

Sep. 19, 2014 Rise Set
Actual Time 7:07 AM EDT 7:20 PM EDT
Civil Twilight 6:44 AM EDT 7:43 PM EDT
Nautical Twilight 6:17 AM EDT 8:10 PM EDT
Astronomical Twilight 5:50 AM EDT 8:37 PM EDT
Moon 3:10 AM EDT 4:31 PM EDT
Length of Visible Light 12h 58m
Length of Day
12h 12m
Tomorrow will be 1m 33s shorter.
Waning Crescent, 17% of the Moon is Illuminated
Today
Waning Crescent
Sep 24
New
Oct 1
First Quarter
Oct 8
Full
Oct 15
Last Quarter

Today's Extremes

State Highs State Lows

Community

WunderPhotos

Upload Photos

1,754,692 photos uploaded!

WunderBlogs® & News

By Dr. Jeff Masters
Director of Meteorology, Weather Underground
By Kari Strenfel
Meteorologist, Weather Underground
By Christopher C. Burt
Weather Historian, Weather Underground
September 19, 2014
September 19, 2014
September 19, 2014

Nearby

Air Quality

  Air Quality AQ Index Pollutant
Yesterday Good
OZONE
Yesterday Good
PM2.5
Current Good
PM2.5
Current Good
OZONE
Friday Good
OZONE
Friday Good
PM2.5
Saturday Good
OZONE
Saturday Good
PM2.5
Sunday Good
OZONE
Sunday Good
PM2.5
Monday Good
OZONE
Monday Good
PM2.5

Snow Depth

Station Depth Elevation
No new snow has been reported.

Earthquake Activity

City Distance Mag. Time & Date
No recent earthquake activity has been reported nearby.
Minimum magnitude displayed is 2.5.

Coastal Water Temperatures

Place Temperature
Lake Worth, FL 84.9 °F
Virginia Key, FL 84.9 °F

Nearby Weather Stations